createdAt,value
2023-07-21T00:02:09.170Z,98900.56
2023-07-21T00:04:37.829Z,98901.09
2023-07-21T00:07:06.898Z,98908.16
2023-07-21T00:09:36.413Z,98891.63
2023-07-21T00:12:05.788Z,98887.06
2023-07-21T00:14:34.732Z,98894.19
2023-07-21T00:17:06.747Z,98905.78
2023-07-21T00:19:35.591Z,98896.91
2023-07-21T00:22:04.590Z,98900.38
2023-07-21T00:24:34.209Z,98907.19
2023-07-21T00:27:04.047Z,98896.69
2023-07-21T00:29:33.678Z,98899.94
2023-07-21T00:32:04.985Z,98890.31
2023-07-21T00:34:33.830Z,98905.69
2023-07-21T00:37:02.569Z,98909.22
2023-07-21T00:39:31.441Z,98906.47
2023-07-21T00:42:00.188Z,98921.75
2023-07-21T00:44:29.781Z,98924.00
2023-07-21T00:47:01.417Z,98928.00
2023-07-21T00:49:34.624Z,98921.31
2023-07-21T00:52:03.367Z,98922.91
2023-07-21T00:54:34.395Z,98924.72
2023-07-21T00:57:03.931Z,98891.91
2023-07-21T00:59:33.395Z,98927.47
2023-07-21T01:02:03.139Z,98909.19
2023-07-21T01:04:33.774Z,98930.25
2023-07-21T01:07:11.511Z,98924.31
2023-07-21T01:09:42.205Z,98911.13
2023-07-21T01:12:11.997Z,98917.78
2023-07-21T01:14:41.553Z,98897.19
2023-07-21T01:17:11.858Z,98914.09
2023-07-21T01:19:41.675Z,98883.13
2023-07-21T01:22:46.990Z,98931.75
2023-07-21T01:25:21.121Z,98922.09
2023-07-21T01:27:52.611Z,98929.19
2023-07-21T01:30:24.235Z,98930.91
2023-07-21T01:32:54.518Z,98916.19
2023-07-21T01:35:24.961Z,98924.63
2023-07-21T01:37:55.201Z,98924.31
2023-07-21T01:40:27.222Z,98924.19
2023-07-21T01:42:57.295Z,98916.44
2023-07-21T01:45:30.645Z,98904.47
2023-07-21T01:47:59.699Z,98927.09
2023-07-21T01:50:30.330Z,98927.25
2023-07-21T01:53:02.791Z,98915.50
2023-07-21T01:55:44.170Z,98919.75
2023-07-21T01:58:16.605Z,98920.69
2023-07-21T02:00:51.696Z,98923.22
2023-07-21T02:03:23.235Z,98921.91
2023-07-21T02:05:52.865Z,98911.59
2023-07-21T02:08:23.592Z,98922.19
2023-07-21T02:10:54.087Z,98884.47
2023-07-21T02:13:38.912Z,98927.78
2023-07-21T02:16:08.325Z,98929.03
2023-07-21T02:18:38.032Z,98914.03
2023-07-21T02:21:07.017Z,98913.25
2023-07-21T02:23:36.108Z,98924.00
2023-07-21T02:26:05.117Z,98886.56
2023-07-21T02:28:33.971Z,98920.69
2023-07-21T02:31:05.773Z,98926.97
2023-07-21T02:33:36.050Z,98933.38
2023-07-21T02:36:07.073Z,98908.78
2023-07-21T02:38:36.147Z,98921.56
2023-07-21T02:41:06.563Z,98922.16
2023-07-21T02:43:35.652Z,98907.28
2023-07-21T02:46:06.120Z,98926.28
2023-07-21T02:48:40.714Z,98922.97
2023-07-21T02:51:09.551Z,98921.09
2023-07-21T02:53:45.305Z,98914.13
2023-07-21T02:56:18.091Z,98919.34
2023-07-21T02:59:02.783Z,98908.91
2023-07-21T03:01:33.281Z,98917.78
2023-07-21T03:04:04.769Z,98912.72
2023-07-21T03:06:40.822Z,98931.69
2023-07-21T03:09:10.582Z,98927.00
2023-07-21T03:11:40.254Z,98933.44
2023-07-21T03:14:18.277Z,98932.72
2023-07-21T03:16:47.358Z,98928.25
2023-07-21T03:19:16.617Z,98930.97
2023-07-21T03:21:49.349Z,98892.56
2023-07-21T03:24:18.383Z,98925.84
2023-07-21T03:26:47.975Z,98916.31
2023-07-21T03:29:16.835Z,98886.94
2023-07-21T03:31:49.943Z,98893.00
2023-07-21T03:34:20.649Z,98919.66
2023-07-21T03:36:52.234Z,98919.97
2023-07-21T03:39:25.356Z,98934.56
2023-07-21T03:41:54.311Z,98925.66
2023-07-21T03:44:24.130Z,98923.53
2023-07-21T03:46:53.895Z,98931.22
2023-07-21T03:49:43.903Z,98940.44
2023-07-21T03:52:13.075Z,98932.31
2023-07-21T03:54:45.382Z,98940.41
2023-07-21T03:57:14.400Z,98933.13
2023-07-21T03:59:44.268Z,98926.91
2023-07-21T04:02:13.446Z,98922.84
2023-07-21T04:04:42.818Z,98932.72
2023-07-21T04:07:12.151Z,98929.53
2023-07-21T04:09:44.586Z,98934.19
2023-07-21T04:12:13.802Z,98899.97
2023-07-21T04:14:42.811Z,98931.25
2023-07-21T04:17:13.588Z,98955.91
2023-07-21T04:19:42.861Z,98904.59
2023-07-21T04:22:16.128Z,98943.94
2023-07-21T04:24:45.062Z,98945.78
2023-07-21T04:27:15.517Z,98949.81
2023-07-21T04:29:44.633Z,98948.16
2023-07-21T04:32:15.951Z,98954.53
2023-07-21T04:34:44.747Z,98959.72
2023-07-21T04:37:15.573Z,98943.47
2023-07-21T04:39:50.547Z,98949.94
2023-07-21T04:42:19.630Z,98960.38
2023-07-21T04:44:50.217Z,98951.75
2023-07-21T04:47:20.682Z,98957.41
2023-07-21T04:50:00.234Z,98957.75
2023-07-21T04:52:29.210Z,98953.50
2023-07-21T04:54:58.228Z,98975.47
2023-07-21T04:57:27.750Z,98974.34
2023-07-21T04:59:58.114Z,98961.28
2023-07-21T05:02:30.958Z,98971.34
2023-07-21T05:05:00.784Z,98996.88
2023-07-21T05:07:31.429Z,98987.06
2023-07-21T05:10:03.567Z,99025.25
2023-07-21T05:12:33.272Z,99036.31
2023-07-21T05:15:12.226Z,99046.22
2023-07-21T05:17:50.479Z,99040.59
2023-07-21T05:20:22.282Z,98992.13
2023-07-21T05:23:09.245Z,99061.34
2023-07-21T05:26:02.296Z,99068.19
2023-07-21T05:28:37.480Z,99073.56
2023-07-21T05:31:06.553Z,99090.59
2023-07-21T05:33:44.892Z,99081.81
2023-07-21T05:36:14.161Z,99075.22
2023-07-21T05:38:43.332Z,99096.22
2023-07-21T05:41:14.715Z,99099.88
2023-07-21T05:43:43.652Z,99107.91
2023-07-21T05:46:13.319Z,99109.03
2023-07-21T05:48:52.434Z,99082.50
2023-07-21T05:54:01.796Z,99069.19
2023-07-21T05:56:33.068Z,99055.41
2023-07-21T05:59:08.097Z,99048.31
2023-07-21T06:01:40.940Z,99045.63
2023-07-21T06:04:11.553Z,99046.59
2023-07-21T06:06:45.753Z,99051.91
2023-07-21T06:09:36.484Z,99044.59
2023-07-21T06:12:33.962Z,99021.03
2023-07-21T06:15:29.414Z,99014.25
2023-07-21T06:18:00.903Z,99020.47
2023-07-21T06:20:32.243Z,99006.28
2023-07-21T06:23:02.949Z,98984.31
2023-07-21T06:25:34.254Z,99028.72
2023-07-21T06:28:08.615Z,99024.84
2023-07-21T06:30:38.041Z,99000.38
2023-07-21T06:33:08.459Z,98994.97
2023-07-21T06:35:46.973Z,98990.31
2023-07-21T06:38:37.771Z,98986.16
2023-07-21T06:41:15.757Z,98983.94
2023-07-21T06:44:00.655Z,98977.66
2023-07-21T06:47:05.184Z,98991.94
2023-07-21T06:49:55.071Z,98991.16
2023-07-21T06:52:28.171Z,98982.16
2023-07-21T06:54:57.493Z,98972.66
2023-07-21T06:57:26.893Z,98968.28
2023-07-21T06:59:56.151Z,98977.72
2023-07-21T07:02:25.238Z,98978.09
2023-07-21T07:04:55.672Z,98972.34
2023-07-21T07:07:24.642Z,98984.03
2023-07-21T07:09:53.533Z,98977.38
2023-07-21T07:12:27.136Z,98950.88
2023-07-21T07:14:56.368Z,98972.09
2023-07-21T07:17:27.560Z,98956.22
2023-07-21T07:19:58.534Z,98955.84
2023-07-21T07:22:27.695Z,98958.16
2023-07-21T07:24:56.694Z,98953.34
2023-07-21T07:27:26.175Z,98940.00
2023-07-21T07:29:55.091Z,98937.41
2023-07-21T07:32:24.057Z,98914.06
2023-07-21T07:34:57.520Z,98945.75
2023-07-21T07:37:27.474Z,98914.47
2023-07-21T07:39:57.289Z,98947.63
2023-07-21T07:42:29.147Z,98931.09
2023-07-21T07:45:01.173Z,98900.97
2023-07-21T07:47:31.064Z,98918.75
2023-07-21T07:49:59.916Z,98901.56
2023-07-21T07:52:28.712Z,98931.88
2023-07-21T07:54:57.596Z,98941.66
2023-07-21T07:57:29.461Z,98936.16
2023-07-21T07:59:58.473Z,98946.84
2023-07-21T08:02:27.195Z,98953.19
2023-07-21T08:04:56.717Z,98944.41
2023-07-21T08:07:25.356Z,98947.78
2023-07-21T08:09:54.258Z,98948.53
2023-07-21T08:12:23.139Z,98951.28
2023-07-21T08:14:51.835Z,98945.47
2023-07-21T08:17:20.814Z,98945.47
2023-07-21T08:19:49.775Z,98940.53
2023-07-21T08:22:18.823Z,98948.69
2023-07-21T08:24:47.801Z,98951.44
2023-07-21T08:27:16.653Z,98950.59
2023-07-21T08:29:45.846Z,98952.59
2023-07-21T08:32:15.481Z,98966.16
2023-07-21T08:34:44.398Z,98971.31
2023-07-21T08:37:14.197Z,98954.31
2023-07-21T08:39:43.360Z,98969.47
2023-07-21T08:42:12.554Z,98972.53
2023-07-21T08:44:42.322Z,98961.03
2023-07-21T08:47:11.314Z,98947.53
2023-07-21T08:49:42.750Z,98964.22
2023-07-21T08:52:11.616Z,98964.91
2023-07-21T08:54:40.592Z,98959.47
2023-07-21T08:57:09.550Z,98957.81
2023-07-21T08:59:38.597Z,98946.56
2023-07-21T09:02:07.719Z,98950.22
2023-07-21T09:04:36.675Z,98952.50
2023-07-21T09:07:06.040Z,98938.16
2023-07-21T09:09:35.161Z,98922.47
2023-07-21T09:12:10.556Z,98948.63
2023-07-21T09:14:46.577Z,98938.94
2023-07-21T09:17:15.941Z,98956.56
2023-07-21T09:19:47.487Z,98917.09
2023-07-21T09:22:16.342Z,98941.56
2023-07-21T09:24:52.717Z,98946.88
2023-07-21T09:27:22.084Z,98958.31
2023-07-21T09:30:00.209Z,98957.06
2023-07-21T09:32:29.228Z,98948.53
2023-07-21T09:35:06.860Z,98960.38
2023-07-21T09:37:37.158Z,98953.25
2023-07-21T09:40:11.641Z,98940.53
2023-07-21T09:42:41.839Z,98923.47
2023-07-21T09:45:11.604Z,98908.25
2023-07-21T09:47:45.079Z,98916.06
2023-07-21T09:50:16.644Z,98929.47
2023-07-21T09:52:49.335Z,98906.28
2023-07-21T09:55:23.605Z,98937.50
2023-07-21T09:57:52.575Z,98952.53
2023-07-21T10:00:22.852Z,98943.72
2023-07-21T10:02:52.862Z,98931.00
2023-07-21T10:05:21.731Z,98914.72
2023-07-21T10:07:52.536Z,98893.97
2023-07-21T10:10:22.020Z,98916.69
2023-07-21T10:12:55.387Z,98906.56
2023-07-21T10:15:31.320Z,98868.47
2023-07-21T10:18:01.402Z,98914.00
2023-07-21T10:20:47.634Z,98891.50
2023-07-21T10:23:24.617Z,98892.06
2023-07-21T10:25:53.669Z,98863.75
2023-07-21T10:28:45.863Z,98898.44
2023-07-21T10:31:24.807Z,98900.59
2023-07-21T10:34:06.957Z,98860.00
2023-07-21T10:36:42.393Z,98892.25
2023-07-21T10:39:18.072Z,98878.59
2023-07-21T10:41:46.976Z,98881.34
2023-07-21T10:44:16.853Z,98874.72
2023-07-21T10:46:50.973Z,98893.91
2023-07-21T10:49:20.716Z,98901.13
2023-07-21T10:51:51.728Z,98905.19
2023-07-21T10:54:20.674Z,98904.22
2023-07-21T10:56:51.474Z,98897.09
2023-07-21T10:59:21.894Z,98916.16
2023-07-21T11:01:55.961Z,98923.19
2023-07-21T11:04:25.096Z,98927.69
2023-07-21T11:06:56.379Z,98926.75
2023-07-21T11:09:26.794Z,98894.28
2023-07-21T11:11:59.474Z,98932.22
2023-07-21T11:14:29.896Z,98931.22
2023-07-21T11:17:04.421Z,98896.31
2023-07-21T11:19:36.078Z,98940.25
2023-07-21T11:22:09.075Z,98947.28
2023-07-21T11:24:37.898Z,98955.50
2023-07-21T11:27:12.798Z,98951.53
2023-07-21T11:29:45.615Z,98935.06
2023-07-21T11:32:22.401Z,98935.47
2023-07-21T11:35:01.071Z,98948.31
2023-07-21T11:37:44.733Z,98929.44
2023-07-21T11:40:21.518Z,98945.41
2023-07-21T11:42:51.238Z,98942.44
2023-07-21T11:45:43.494Z,98941.28
2023-07-21T11:48:16.619Z,98939.72
2023-07-21T11:50:53.980Z,98929.88
2023-07-21T11:53:25.538Z,98907.50
2023-07-21T11:55:55.049Z,98935.19
2023-07-21T11:58:24.166Z,98896.81
2023-07-21T12:00:52.917Z,98937.34
2023-07-21T12:03:21.977Z,98929.19
2023-07-21T12:05:51.655Z,98890.16
2023-07-21T12:08:20.638Z,98919.69
2023-07-21T12:10:49.657Z,98908.63
2023-07-21T12:13:18.474Z,98930.81
2023-07-21T12:15:47.542Z,98924.19
2023-07-21T12:18:16.395Z,98918.63
2023-07-21T12:20:47.656Z,98893.19
2023-07-21T12:23:16.819Z,98911.69
2023-07-21T12:25:45.877Z,98911.81
2023-07-21T12:28:15.517Z,98914.19
2023-07-21T12:30:47.707Z,98899.38
2023-07-21T12:33:17.526Z,98900.06
2023-07-21T12:35:48.036Z,98902.09
2023-07-21T12:38:17.758Z,98896.06
2023-07-21T12:40:47.001Z,98878.41
2023-07-21T12:43:15.965Z,98881.16
2023-07-21T12:45:44.863Z,98878.88
2023-07-21T12:48:13.796Z,98888.59
2023-07-21T12:50:43.246Z,98879.56
2023-07-21T12:53:12.276Z,98871.41
2023-07-21T12:55:43.958Z,98870.25
2023-07-21T12:58:13.175Z,98877.34
2023-07-21T13:00:43.258Z,98869.84
2023-07-21T13:03:16.066Z,98866.53
2023-07-21T13:05:55.812Z,98871.50
2023-07-21T13:08:26.927Z,98863.25
2023-07-21T13:10:56.339Z,98866.53
2023-07-21T13:13:25.113Z,98869.50
2023-07-21T13:15:54.119Z,98851.97
2023-07-21T13:18:23.117Z,98834.22
2023-07-21T13:20:52.174Z,98825.59
2023-07-21T13:23:22.291Z,98858.88
2023-07-21T13:25:51.730Z,98861.00
2023-07-21T13:28:21.097Z,98860.16
2023-07-21T13:30:49.853Z,98880.41
2023-07-21T13:33:19.439Z,98861.34
2023-07-21T13:35:51.634Z,98870.56
2023-07-21T13:38:20.796Z,98870.47
2023-07-21T13:40:50.344Z,98873.09
2023-07-21T13:43:19.599Z,98884.44
2023-07-21T13:45:48.547Z,98870.22
2023-07-21T13:48:17.598Z,98882.25
2023-07-21T13:50:46.735Z,98844.06
2023-07-21T13:53:18.092Z,98869.78
2023-07-21T13:55:46.971Z,98841.34
2023-07-21T13:58:15.634Z,98877.75
2023-07-21T14:00:44.602Z,98883.09
2023-07-21T14:03:13.452Z,98879.81
2023-07-21T14:05:42.371Z,98855.66
2023-07-21T14:08:14.331Z,98879.31
2023-07-21T14:10:43.222Z,98893.41
2023-07-21T14:13:12.556Z,98896.38
2023-07-21T14:15:41.393Z,98891.38
2023-07-21T14:18:10.554Z,98891.75
2023-07-21T14:20:40.290Z,98898.25
2023-07-21T14:23:09.408Z,98903.81
2023-07-21T14:25:38.607Z,98903.53
2023-07-21T14:28:08.271Z,98904.44
2023-07-21T14:30:38.318Z,98901.63
2023-07-21T14:33:07.950Z,98932.50
2023-07-21T14:35:37.088Z,98947.34
2023-07-21T14:38:06.666Z,98957.63
2023-07-21T14:40:35.924Z,98959.09
2023-07-21T14:43:05.200Z,98957.66
2023-07-21T14:45:35.003Z,98949.75
2023-07-21T14:48:03.918Z,98954.13
2023-07-21T14:50:35.054Z,98964.16
2023-07-21T14:53:04.483Z,98963.97
2023-07-21T14:55:33.945Z,98938.81
2023-07-21T14:58:03.257Z,98955.47
2023-07-21T15:00:32.239Z,98946.50
2023-07-21T15:03:01.271Z,98957.56
2023-07-21T15:05:30.381Z,98955.03
2023-07-21T15:07:59.199Z,98960.63
2023-07-21T15:10:32.792Z,98959.81
2023-07-21T15:13:01.700Z,98980.53
2023-07-21T15:15:30.783Z,98976.13
2023-07-21T15:17:59.857Z,98957.16
2023-07-21T15:20:29.088Z,98933.97
2023-07-21T15:22:58.644Z,98911.59
2023-07-21T15:25:27.665Z,98949.50
2023-07-21T15:27:56.437Z,98940.91
2023-07-21T15:30:26.195Z,98929.41
2023-07-21T15:32:58.078Z,98895.16
2023-07-21T15:35:27.107Z,98946.56
2023-07-21T15:37:55.999Z,98949.19
2023-07-21T15:40:28.411Z,98960.38
2023-07-21T15:42:58.311Z,98924.63
2023-07-21T15:45:27.109Z,98961.31
2023-07-21T15:47:56.311Z,98945.44
2023-07-21T15:50:25.436Z,98947.66
2023-07-21T15:52:54.501Z,98934.97
2023-07-21T15:55:23.541Z,98959.09
2023-07-21T15:57:55.057Z,98950.91
2023-07-21T16:00:23.959Z,98928.38
2023-07-21T16:02:53.124Z,98939.03
2023-07-21T16:05:22.635Z,98922.34
2023-07-21T16:07:51.457Z,98943.78
2023-07-21T16:10:21.144Z,98977.88
2023-07-21T16:12:51.515Z,98988.34
2023-07-21T16:15:21.083Z,98982.50
2023-07-21T16:17:50.581Z,98982.38
2023-07-21T16:20:20.071Z,98975.09
2023-07-21T16:22:51.637Z,98961.69
2023-07-21T16:25:21.071Z,98968.56
2023-07-21T16:27:53.313Z,98970.88
2023-07-21T16:30:22.885Z,98976.66
2023-07-21T16:32:52.694Z,98965.59
2023-07-21T16:35:23.067Z,98958.66
2023-07-21T16:37:51.910Z,98966.75
2023-07-21T16:40:24.635Z,98983.34
2023-07-21T16:42:53.723Z,98992.44
2023-07-21T16:45:23.192Z,98996.69
2023-07-21T16:47:54.432Z,99000.88
2023-07-21T16:50:27.456Z,99009.16
2023-07-21T16:52:56.195Z,99007.94
2023-07-21T16:55:25.417Z,99005.03
2023-07-21T16:57:54.273Z,99003.00
2023-07-21T17:00:23.960Z,99019.56
2023-07-21T17:02:53.234Z,99008.25
2023-07-21T17:05:32.082Z,99004.44
2023-07-21T17:08:02.562Z,98987.88
2023-07-21T17:10:31.873Z,98994.50
2023-07-21T17:13:01.957Z,98997.56
2023-07-21T17:15:34.386Z,98988.97
2023-07-21T17:18:06.543Z,98984.25
2023-07-21T17:20:36.563Z,98991.25
2023-07-21T17:23:05.176Z,98998.69
2023-07-21T17:25:35.156Z,99003.41
2023-07-21T17:28:04.708Z,99002.75
2023-07-21T17:30:34.290Z,99008.88
2023-07-21T17:33:03.462Z,99008.59
2023-07-21T17:35:33.069Z,99028.66
2023-07-21T17:38:02.573Z,99111.22
2023-07-21T17:40:34.216Z,99112.56
2023-07-21T17:43:04.012Z,99124.19
2023-07-21T17:45:33.022Z,99125.59
2023-07-21T17:48:05.104Z,99139.84
2023-07-21T17:50:34.037Z,99148.97
2023-07-21T17:53:03.044Z,99149.50
2023-07-21T17:55:32.236Z,99147.22
2023-07-21T17:58:01.077Z,99152.09
2023-07-21T18:00:40.502Z,99095.47
2023-07-21T18:03:10.430Z,99147.53
2023-07-21T18:05:40.237Z,99143.03
2023-07-21T18:08:11.536Z,99154.63
2023-07-21T18:10:46.097Z,99159.38
2023-07-21T18:13:24.277Z,99130.53
2023-07-21T18:15:54.264Z,99152.19
2023-07-21T18:18:24.295Z,99151.34
2023-07-21T18:21:08.554Z,99151.88
2023-07-21T18:23:38.768Z,99150.38
2023-07-21T18:26:07.612Z,99163.81
2023-07-21T18:28:39.537Z,99167.03
2023-07-21T18:31:11.666Z,99192.38
2023-07-21T18:33:40.746Z,99192.38
2023-07-21T18:36:19.202Z,99201.78
2023-07-21T18:38:48.694Z,99212.19
2023-07-21T18:41:20.308Z,99234.31
2023-07-21T18:43:51.568Z,99231.28
2023-07-21T18:46:23.133Z,99211.47
2023-07-21T18:48:52.833Z,99214.97
2023-07-21T18:51:22.594Z,99214.16
2023-07-21T18:53:51.521Z,99221.84
2023-07-21T18:56:20.435Z,99219.53
2023-07-21T18:58:52.648Z,99228.41
2023-07-21T19:01:25.916Z,99189.00
2023-07-21T19:03:58.494Z,99237.00
2023-07-21T19:06:27.335Z,99252.28
2023-07-21T19:08:56.677Z,99230.81
2023-07-21T19:11:26.612Z,99230.97
2023-07-21T19:13:55.594Z,99182.28
2023-07-21T19:16:27.100Z,99213.84
2023-07-21T19:18:55.830Z,99150.56
2023-07-21T19:21:25.454Z,99214.16
2023-07-21T19:24:01.242Z,99159.28
2023-07-21T19:26:32.805Z,99191.31
2023-07-21T19:29:01.834Z,99176.88
2023-07-21T19:31:33.120Z,99194.03
2023-07-21T19:34:06.102Z,99173.91
2023-07-21T19:36:35.478Z,99183.44
2023-07-21T19:39:05.274Z,99195.06
2023-07-21T19:41:34.243Z,99185.81
2023-07-21T19:44:03.293Z,99179.94
2023-07-21T19:46:35.621Z,99170.19
2023-07-21T19:49:06.442Z,99168.53
2023-07-21T19:51:35.278Z,99156.44
2023-07-21T19:54:04.054Z,99146.03
2023-07-21T19:56:33.076Z,99138.81
2023-07-21T19:59:02.488Z,99131.06
2023-07-21T20:01:34.271Z,99107.22
2023-07-21T20:04:05.813Z,99112.59
2023-07-21T20:06:34.390Z,99088.59
2023-07-21T20:09:03.094Z,99079.53
2023-07-21T20:11:32.928Z,99057.03
2023-07-21T20:14:02.049Z,99048.69
2023-07-21T20:16:31.049Z,99040.16
2023-07-21T20:18:59.942Z,99028.28
2023-07-21T20:21:29.080Z,99018.72
2023-07-21T20:23:58.086Z,99032.66
2023-07-21T20:26:27.440Z,99026.00
2023-07-21T20:28:59.321Z,99052.47
2023-07-21T20:31:29.369Z,99031.66
2023-07-21T20:33:58.593Z,99050.44
2023-07-21T20:36:27.819Z,99058.84
2023-07-21T20:38:56.697Z,99066.91
2023-07-21T20:41:25.363Z,99080.47
2023-07-21T20:43:53.915Z,99093.41
2023-07-21T20:46:23.570Z,99096.94
2023-07-21T20:48:52.414Z,99099.78
2023-07-21T20:51:21.134Z,99085.47
2023-07-21T20:53:50.446Z,99123.56
2023-07-21T20:56:19.171Z,99113.16
2023-07-21T20:58:51.032Z,99121.50
2023-07-21T21:01:20.000Z,99117.13
2023-07-21T21:03:48.913Z,99112.59
2023-07-21T21:06:18.078Z,99112.78
2023-07-21T21:08:49.373Z,99130.69
2023-07-21T21:11:17.874Z,99127.81
2023-07-21T21:13:47.133Z,99127.63
2023-07-21T21:16:16.078Z,99131.63
2023-07-21T21:18:45.035Z,99150.09
2023-07-21T21:21:16.376Z,99142.53
2023-07-21T21:23:45.033Z,99083.41
2023-07-21T21:26:13.776Z,99130.41
2023-07-21T21:28:42.877Z,99134.41
2023-07-21T21:31:11.811Z,99134.53
2023-07-21T21:33:40.577Z,99142.53
2023-07-21T21:36:09.493Z,99175.19
2023-07-21T21:38:38.740Z,99172.19
2023-07-21T21:41:07.776Z,99150.34
2023-07-21T21:43:36.517Z,99115.69
2023-07-21T21:46:05.315Z,99126.22
2023-07-21T21:48:34.544Z,99148.38
2023-07-21T21:51:03.537Z,99157.56
2023-07-21T21:53:32.234Z,99119.56
2023-07-21T21:56:01.115Z,99153.78
2023-07-21T21:58:33.916Z,99173.59
2023-07-21T22:01:06.002Z,99155.09
2023-07-21T22:03:36.970Z,99170.22
2023-07-21T22:06:06.345Z,99177.25
2023-07-21T22:08:35.352Z,99156.06
2023-07-21T22:11:05.380Z,99158.53
2023-07-21T22:13:35.075Z,99165.88
2023-07-21T22:16:05.326Z,99162.88
2023-07-21T22:18:34.157Z,99157.84
2023-07-21T22:21:05.202Z,99161.19
2023-07-21T22:23:34.269Z,99168.53
2023-07-21T22:26:07.479Z,99164.78
2023-07-21T22:28:36.635Z,99184.91
2023-07-21T22:31:19.353Z,99168.72
2023-07-21T22:33:48.154Z,99179.44
2023-07-21T22:36:18.458Z,99184.78
2023-07-21T22:38:47.774Z,99183.28
2023-07-21T22:41:16.555Z,99169.13
2023-07-21T22:43:46.252Z,99190.22
2023-07-21T22:46:15.060Z,99190.53
2023-07-21T22:48:44.030Z,99205.44
2023-07-21T22:51:12.751Z,99183.88
2023-07-21T22:53:42.259Z,99152.47
2023-07-21T22:56:11.613Z,99194.88
2023-07-21T22:58:42.930Z,99207.13
2023-07-21T23:01:12.825Z,99224.53
2023-07-21T23:03:41.774Z,99219.50
2023-07-21T23:06:10.473Z,99232.66
2023-07-21T23:08:39.399Z,99233.13
2023-07-21T23:11:08.057Z,99220.44
2023-07-21T23:13:36.936Z,99237.25
2023-07-21T23:16:09.291Z,99221.25
2023-07-21T23:18:38.147Z,99239.91
2023-07-21T23:21:06.891Z,99240.09
2023-07-21T23:23:35.780Z,99236.25
2023-07-21T23:26:07.262Z,99242.59
2023-07-21T23:28:35.853Z,99231.75
2023-07-21T23:31:05.723Z,99225.19
2023-07-21T23:33:37.018Z,99214.22
2023-07-21T23:36:06.111Z,99222.94
2023-07-21T23:38:35.118Z,99245.97
2023-07-21T23:41:04.095Z,99231.38
2023-07-21T23:43:32.764Z,99234.25
2023-07-21T23:46:01.610Z,99205.50
2023-07-21T23:48:31.613Z,99243.06
2023-07-21T23:51:00.237Z,99238.31
2023-07-21T23:53:29.396Z,99248.41
2023-07-21T23:55:58.180Z,99254.59
2023-07-21T23:58:26.991Z,99277.63
